sensor_id;sensor_type;location;lat;lon;timestamp;pressure;altitude;pressure_sealevel;temperature;humidity
24390;BME280;12510;56.468;-3.004;2023-01-13T14:18:18;98936.66;;;19.67;53.11
24390;BME280;12510;56.468;-3.004;2023-01-13T14:23:59;98937.22;;;19.81;52.23
24390;BME280;12510;56.468;-3.004;2023-01-13T14:26:29;98944.66;;;20.07;51.58
24390;BME280;12510;56.468;-3.004;2023-01-13T14:28:57;98950.25;;;20.06;51.85
24390;BME280;12510;56.468;-3.004;2023-01-13T14:31:24;98945.41;;;20.20;51.83
24390;BME280;12510;56.468;-3.004;2023-01-13T14:33:54;98950.06;;;19.55;52.90
24390;BME280;12510;56.468;-3.004;2023-01-13T14:36:44;98949.34;;;19.59;53.07
24390;BME280;12510;56.468;-3.004;2023-01-13T14:44:22;98974.97;;;19.08;53.75
24390;BME280;12510;56.468;-3.004;2023-01-13T14:46:51;98965.94;;;19.62;52.88
24390;BME280;12510;56.468;-3.004;2023-01-13T14:49:25;98966.19;;;19.60;52.16
24390;BME280;12510;56.468;-3.004;2023-01-13T14:52:02;98971.91;;;19.52;52.48
24390;BME280;12510;56.468;-3.004;2023-01-13T14:54:50;98974.84;;;18.91;53.98
24390;BME280;12510;56.468;-3.004;2023-01-13T15:04:57;98978.13;;;18.51;53.80
24390;BME280;12510;56.468;-3.004;2023-01-13T15:07:53;98973.75;;;18.80;52.65
24390;BME280;12510;56.468;-3.004;2023-01-13T15:10:32;98982.16;;;17.81;53.68
24390;BME280;12510;56.468;-3.004;2023-01-13T15:13:02;98978.69;;;18.41;53.33
24390;BME280;12510;56.468;-3.004;2023-01-13T15:15:30;98991.13;;;18.17;54.02
24390;BME280;12510;56.468;-3.004;2023-01-13T15:17:59;98984.22;;;18.28;52.98
24390;BME280;12510;56.468;-3.004;2023-01-13T15:20:26;98992.75;;;18.18;53.41
24390;BME280;12510;56.468;-3.004;2023-01-13T15:22:54;98992.19;;;18.58;52.60
24390;BME280;12510;56.468;-3.004;2023-01-13T15:25:23;98995.28;;;18.55;52.74
24390;BME280;12510;56.468;-3.004;2023-01-13T15:27:51;99001.16;;;18.87;51.80
24390;BME280;12510;56.468;-3.004;2023-01-13T15:30:20;99000.19;;;18.58;52.14
24390;BME280;12510;56.468;-3.004;2023-01-13T15:32:47;99024.78;;;18.41;52.88
24390;BME280;12510;56.468;-3.004;2023-01-13T15:35:15;99020.06;;;18.43;53.16
24390;BME280;12510;56.468;-3.004;2023-01-13T15:37:43;99024.63;;;18.24;54.12
24390;BME280;12510;56.468;-3.004;2023-01-13T15:40:18;99034.56;;;17.99;54.86
24390;BME280;12510;56.468;-3.004;2023-01-13T15:42:45;99037.44;;;18.16;54.09
24390;BME280;12510;56.468;-3.004;2023-01-13T15:45:31;99030.03;;;18.48;53.20
24390;BME280;12510;56.468;-3.004;2023-01-13T15:48:19;99047.03;;;18.35;53.31
24390;BME280;12510;56.468;-3.004;2023-01-13T15:50:46;99050.53;;;18.17;54.30
24390;BME280;12510;56.468;-3.004;2023-01-13T15:53:13;99055.03;;;18.77;53.19
24390;BME280;12510;56.468;-3.004;2023-01-13T15:55:44;99073.16;;;18.26;54.76
24390;BME280;12510;56.468;-3.004;2023-01-13T15:58:12;99075.94;;;18.81;53.76
24390;BME280;12510;56.468;-3.004;2023-01-13T16:00:41;99080.38;;;18.07;55.59
24390;BME280;12510;56.468;-3.004;2023-01-13T16:03:15;99086.56;;;18.38;55.04
24390;BME280;12510;56.468;-3.004;2023-01-13T16:05:43;99084.69;;;18.69;54.46
24390;BME280;12510;56.468;-3.004;2023-01-13T16:08:17;99090.56;;;18.29;55.22
24390;BME280;12510;56.468;-3.004;2023-01-13T16:10:45;99083.63;;;18.09;55.62
24390;BME280;12510;56.468;-3.004;2023-01-13T16:13:12;99088.50;;;18.31;55.21
24390;BME280;12510;56.468;-3.004;2023-01-13T16:15:46;99086.50;;;18.26;55.13
24390;BME280;12510;56.468;-3.004;2023-01-13T16:18:16;99083.25;;;18.24;54.27
24390;BME280;12510;56.468;-3.004;2023-01-13T16:20:43;99095.19;;;18.03;54.37
24390;BME280;12510;56.468;-3.004;2023-01-13T16:23:10;99092.63;;;17.71;54.86
24390;BME280;12510;56.468;-3.004;2023-01-13T16:25:37;99095.56;;;17.45;56.19
24390;BME280;12510;56.468;-3.004;2023-01-13T16:28:04;99086.66;;;17.32;56.37
24390;BME280;12510;56.468;-3.004;2023-01-13T16:30:35;99083.69;;;17.22;56.59
24390;BME280;12510;56.468;-3.004;2023-01-13T16:33:02;99081.50;;;17.12;56.29
24390;BME280;12510;56.468;-3.004;2023-01-13T16:35:29;99094.53;;;16.95;56.46
24390;BME280;12510;56.468;-3.004;2023-01-13T16:37:57;99092.66;;;16.96;56.88
24390;BME280;12510;56.468;-3.004;2023-01-13T16:40:27;99089.91;;;17.09;56.18
24390;BME280;12510;56.468;-3.004;2023-01-13T16:42:55;99093.84;;;17.00;56.19
24390;BME280;12510;56.468;-3.004;2023-01-13T16:45:23;99105.41;;;16.87;56.01
24390;BME280;12510;56.468;-3.004;2023-01-13T16:47:49;99118.97;;;16.33;57.30
24390;BME280;12510;56.468;-3.004;2023-01-13T16:52:57;99121.13;;;15.98;58.25
24390;BME280;12510;56.468;-3.004;2023-01-13T16:55:23;99121.66;;;16.27;57.18
24390;BME280;12510;56.468;-3.004;2023-01-13T16:57:50;99127.03;;;16.06;57.80
24390;BME280;12510;56.468;-3.004;2023-01-13T17:00:17;99136.06;;;15.92;57.76
24390;BME280;12510;56.468;-3.004;2023-01-13T17:02:43;99137.69;;;15.93;57.41
24390;BME280;12510;56.468;-3.004;2023-01-13T17:05:12;99140.34;;;15.80;57.53
24390;BME280;12510;56.468;-3.004;2023-01-13T17:07:41;99147.91;;;15.56;58.70
24390;BME280;12510;56.468;-3.004;2023-01-13T17:10:18;99158.53;;;15.69;60.00
24390;BME280;12510;56.468;-3.004;2023-01-13T17:12:45;99145.44;;;16.01;57.99
24390;BME280;12510;56.468;-3.004;2023-01-13T17:15:13;99154.25;;;15.55;58.29
24390;BME280;12510;56.468;-3.004;2023-01-13T17:17:41;99154.22;;;15.95;57.62
24390;BME280;12510;56.468;-3.004;2023-01-13T17:20:13;99155.19;;;16.21;57.01
24390;BME280;12510;56.468;-3.004;2023-01-13T17:22:40;99154.31;;;16.34;56.86
24390;BME280;12510;56.468;-3.004;2023-01-13T17:25:07;99154.59;;;16.05;57.25
24390;BME280;12510;56.468;-3.004;2023-01-13T17:27:35;99159.66;;;16.27;56.36
24390;BME280;12510;56.468;-3.004;2023-01-13T17:30:01;99158.00;;;16.26;56.49
24390;BME280;12510;56.468;-3.004;2023-01-13T17:32:30;99162.81;;;15.97;56.53
24390;BME280;12510;56.468;-3.004;2023-01-13T17:34:56;99164.22;;;15.80;57.91
24390;BME280;12510;56.468;-3.004;2023-01-13T17:37:24;99161.16;;;15.76;57.66
24390;BME280;12510;56.468;-3.004;2023-01-13T17:39:51;99163.22;;;15.67;60.06
24390;BME280;12510;56.468;-3.004;2023-01-13T17:42:18;99162.56;;;16.05;57.94
24390;BME280;12510;56.468;-3.004;2023-01-13T17:44:45;99163.63;;;15.91;61.38
24390;BME280;12510;56.468;-3.004;2023-01-13T17:47:13;99145.81;;;16.18;59.75
24390;BME280;12510;56.468;-3.004;2023-01-13T17:49:40;99147.13;;;16.48;60.23
24390;BME280;12510;56.468;-3.004;2023-01-13T17:52:06;99133.22;;;16.46;58.49
24390;BME280;12510;56.468;-3.004;2023-01-13T17:54:33;99131.97;;;16.48;58.45
24390;BME280;12510;56.468;-3.004;2023-01-13T17:57:00;99129.03;;;16.63;58.42
24390;BME280;12510;56.468;-3.004;2023-01-13T17:59:26;99146.41;;;16.66;57.58
24390;BME280;12510;56.468;-3.004;2023-01-13T18:01:53;99150.25;;;16.24;59.13
24390;BME280;12510;56.468;-3.004;2023-01-13T18:04:22;99161.31;;;16.21;59.87
24390;BME280;12510;56.468;-3.004;2023-01-13T18:06:48;99179.84;;;16.35;63.17
24390;BME280;12510;56.468;-3.004;2023-01-13T18:09:15;99185.88;;;16.62;62.40
24390;BME280;12510;56.468;-3.004;2023-01-13T18:11:43;99206.94;;;16.64;62.78
24390;BME280;12510;56.468;-3.004;2023-01-13T18:14:09;99219.91;;;16.40;65.80
24390;BME280;12510;56.468;-3.004;2023-01-13T18:16:36;99219.16;;;15.99;68.24
24390;BME280;12510;56.468;-3.004;2023-01-13T18:19:03;99218.91;;;16.28;66.40
24390;BME280;12510;56.468;-3.004;2023-01-13T18:21:48;99219.06;;;16.39;67.72
24390;BME280;12510;56.468;-3.004;2023-01-13T18:24:33;99208.66;;;16.97;65.47
24390;BME280;12510;56.468;-3.004;2023-01-13T18:27:24;99200.66;;;16.45;65.87
24390;BME280;12510;56.468;-3.004;2023-01-13T18:29:54;99194.38;;;16.91;64.49
24390;BME280;12510;56.468;-3.004;2023-01-13T18:32:23;99195.28;;;16.58;65.78
24390;BME280;12510;56.468;-3.004;2023-01-13T18:34:51;99201.81;;;15.97;66.99
24390;BME280;12510;56.468;-3.004;2023-01-13T18:37:17;99203.03;;;15.94;69.69
24390;BME280;12510;56.468;-3.004;2023-01-13T18:39:44;99213.63;;;16.14;67.75
24390;BME280;12510;56.468;-3.004;2023-01-13T18:42:10;99207.50;;;15.67;69.66
24390;BME280;12510;56.468;-3.004;2023-01-13T18:44:55;99218.81;;;16.61;65.75
24390;BME280;12510;56.468;-3.004;2023-01-13T18:47:27;99210.47;;;16.44;66.72
24390;BME280;12510;56.468;-3.004;2023-01-13T18:49:56;99210.56;;;16.11;66.72
24390;BME280;12510;56.468;-3.004;2023-01-13T18:52:22;99201.56;;;16.25;66.71
24390;BME280;12510;56.468;-3.004;2023-01-13T18:54:49;99205.72;;;15.81;67.81
24390;BME280;12510;56.468;-3.004;2023-01-13T18:57:15;99198.34;;;16.62;64.86
24390;BME280;12510;56.468;-3.004;2023-01-13T18:59:42;99200.34;;;16.21;65.77
24390;BME280;12510;56.468;-3.004;2023-01-13T19:02:18;99192.22;;;15.82;67.41
24390;BME280;12510;56.468;-3.004;2023-01-13T19:04:45;99186.09;;;15.88;65.85
24390;BME280;12510;56.468;-3.004;2023-01-13T19:07:12;99204.25;;;15.71;66.63
24390;BME280;12510;56.468;-3.004;2023-01-13T19:09:47;99216.09;;;15.69;67.18
24390;BME280;12510;56.468;-3.004;2023-01-13T19:12:16;99227.25;;;15.24;71.08
24390;BME280;12510;56.468;-3.004;2023-01-13T19:14:54;99230.78;;;15.51;71.38
24390;BME280;12510;56.468;-3.004;2023-01-13T19:17:21;99226.63;;;16.42;67.89
24390;BME280;12510;56.468;-3.004;2023-01-13T19:19:50;99224.56;;;16.45;65.90
24390;BME280;12510;56.468;-3.004;2023-01-13T19:22:20;99240.53;;;16.38;66.74
24390;BME280;12510;56.468;-3.004;2023-01-13T19:24:49;99238.50;;;16.40;67.43
24390;BME280;12510;56.468;-3.004;2023-01-13T19:27:16;99229.03;;;16.57;65.96
24390;BME280;12510;56.468;-3.004;2023-01-13T19:29:44;99231.13;;;16.35;67.32
24390;BME280;12510;56.468;-3.004;2023-01-13T19:32:11;99240.53;;;16.38;67.66
24390;BME280;12510;56.468;-3.004;2023-01-13T19:34:38;99244.28;;;16.75;65.63
24390;BME280;12510;56.468;-3.004;2023-01-13T19:37:05;99258.88;;;16.53;67.16
24390;BME280;12510;56.468;-3.004;2023-01-13T19:39:33;99257.41;;;16.70;67.11
24390;BME280;12510;56.468;-3.004;2023-01-13T19:41:59;99257.78;;;16.74;67.30
24390;BME280;12510;56.468;-3.004;2023-01-13T19:44:44;99260.84;;;16.91;66.05
24390;BME280;12510;56.468;-3.004;2023-01-13T19:47:29;99262.84;;;16.89;66.99
24390;BME280;12510;56.468;-3.004;2023-01-13T19:49:56;99270.00;;;16.09;69.51
24390;BME280;12510;56.468;-3.004;2023-01-13T19:52:22;99284.25;;;16.42;68.30
24390;BME280;12510;56.468;-3.004;2023-01-13T19:54:49;99276.94;;;16.31;67.11
24390;BME280;12510;56.468;-3.004;2023-01-13T19:57:16;99269.03;;;17.28;64.70
24390;BME280;12510;56.468;-3.004;2023-01-13T19:59:43;99264.56;;;17.54;63.57
24390;BME280;12510;56.468;-3.004;2023-01-13T20:02:18;99247.28;;;17.38;62.87
24390;BME280;12510;56.468;-3.004;2023-01-13T20:04:55;99247.81;;;17.47;61.92
24390;BME280;12510;56.468;-3.004;2023-01-13T20:07:23;99246.88;;;17.34;61.98
24390;BME280;12510;56.468;-3.004;2023-01-13T20:09:51;99236.25;;;17.34;61.26
24390;BME280;12510;56.468;-3.004;2023-01-13T20:12:18;99235.88;;;17.56;60.03
24390;BME280;12510;56.468;-3.004;2023-01-13T20:14:46;99228.16;;;17.48;59.23
24390;BME280;12510;56.468;-3.004;2023-01-13T20:17:14;99231.66;;;17.16;60.29
24390;BME280;12510;56.468;-3.004;2023-01-13T20:19:41;99226.22;;;16.46;62.73
24390;BME280;12510;56.468;-3.004;2023-01-13T20:22:08;99225.84;;;16.94;61.07
24390;BME280;12510;56.468;-3.004;2023-01-13T20:24:35;99209.44;;;17.61;58.39
24390;BME280;12510;56.468;-3.004;2023-01-13T20:27:01;99218.31;;;16.78;59.07
24390;BME280;12510;56.468;-3.004;2023-01-13T20:29:28;99213.69;;;16.59;60.65
24390;BME280;12510;56.468;-3.004;2023-01-13T20:31:55;99207.19;;;16.49;60.03
24390;BME280;12510;56.468;-3.004;2023-01-13T20:34:22;99195.78;;;16.41;59.74
24390;BME280;12510;56.468;-3.004;2023-01-13T20:36:49;99196.81;;;16.34;60.27
24390;BME280;12510;56.468;-3.004;2023-01-13T20:39:18;99179.66;;;16.82;58.35
24390;BME280;12510;56.468;-3.004;2023-01-13T20:41:45;99194.84;;;16.16;60.65
24390;BME280;12510;56.468;-3.004;2023-01-13T20:44:30;99198.94;;;16.12;62.78
24390;BME280;12510;56.468;-3.004;2023-01-13T20:46:57;99191.44;;;16.99;58.55
24390;BME280;12510;56.468;-3.004;2023-01-13T20:49:25;99201.84;;;15.90;60.85
24390;BME280;12510;56.468;-3.004;2023-01-13T20:51:52;99207.94;;;15.84;62.20
24390;BME280;12510;56.468;-3.004;2023-01-13T20:54:19;99204.06;;;15.66;63.07
24390;BME280;12510;56.468;-3.004;2023-01-13T20:56:46;99203.63;;;15.69;63.44
24390;BME280;12510;56.468;-3.004;2023-01-13T20:59:12;99217.31;;;15.39;65.87
24390;BME280;12510;56.468;-3.004;2023-01-13T21:01:39;99206.22;;;16.88;62.70
24390;BME280;12510;56.468;-3.004;2023-01-13T21:04:06;99216.44;;;16.91;61.16
24390;BME280;12510;56.468;-3.004;2023-01-13T21:06:33;99220.97;;;16.19;63.88
24390;BME280;12510;56.468;-3.004;2023-01-13T21:08:59;99217.34;;;16.00;64.40
24390;BME280;12510;56.468;-3.004;2023-01-13T21:11:27;99211.78;;;16.80;61.99
24390;BME280;12510;56.468;-3.004;2023-01-13T21:14:23;99223.00;;;15.36;66.79
24390;BME280;12510;56.468;-3.004;2023-01-13T21:17:11;99209.16;;;15.68;66.76
24390;BME280;12510;56.468;-3.004;2023-01-13T21:20:09;99206.50;;;15.48;67.40
24390;BME280;12510;56.468;-3.004;2023-01-13T21:22:36;99213.44;;;15.49;68.46
24390;BME280;12510;56.468;-3.004;2023-01-13T21:25:05;99209.13;;;16.21;66.09
24390;BME280;12510;56.468;-3.004;2023-01-13T21:27:32;99208.13;;;16.09;65.81
24390;BME280;12510;56.468;-3.004;2023-01-13T21:29:59;99195.44;;;16.18;64.23
24390;BME280;12510;56.468;-3.004;2023-01-13T21:32:26;99192.44;;;15.94;65.13
24390;BME280;12510;56.468;-3.004;2023-01-13T21:34:52;99192.81;;;15.78;65.53
24390;BME280;12510;56.468;-3.004;2023-01-13T21:37:18;99191.22;;;15.90;64.79
24390;BME280;12510;56.468;-3.004;2023-01-13T21:39:45;99186.16;;;16.40;62.99
24390;BME280;12510;56.468;-3.004;2023-01-13T21:42:15;99191.94;;;16.31;63.05
24390;BME280;12510;56.468;-3.004;2023-01-13T21:45:01;99193.81;;;15.76;63.91
24390;BME280;12510;56.468;-3.004;2023-01-13T21:47:47;99204.25;;;15.65;64.56
24390;BME280;12510;56.468;-3.004;2023-01-13T21:50:22;99203.44;;;15.71;65.09
24390;BME280;12510;56.468;-3.004;2023-01-13T21:52:50;99192.00;;;15.57;65.21
24390;BME280;12510;56.468;-3.004;2023-01-13T21:55:18;99189.56;;;15.69;65.12
24390;BME280;12510;56.468;-3.004;2023-01-13T21:57:46;99207.53;;;15.94;64.98
24390;BME280;12510;56.468;-3.004;2023-01-13T22:00:14;99197.09;;;16.05;64.45
24390;BME280;12510;56.468;-3.004;2023-01-13T22:02:41;99186.06;;;15.95;65.05
24390;BME280;12510;56.468;-3.004;2023-01-13T22:05:09;99174.88;;;15.93;64.20
24390;BME280;12510;56.468;-3.004;2023-01-13T22:07:37;99173.88;;;15.81;64.21
24390;BME280;12510;56.468;-3.004;2023-01-13T22:10:06;99165.91;;;15.81;64.59
24390;BME280;12510;56.468;-3.004;2023-01-13T22:12:34;99173.22;;;15.72;64.59
24390;BME280;12510;56.468;-3.004;2023-01-13T22:15:01;99172.19;;;15.80;64.21
24390;BME280;12510;56.468;-3.004;2023-01-13T22:17:28;99167.09;;;15.91;63.74
24390;BME280;12510;56.468;-3.004;2023-01-13T22:19:57;99174.47;;;15.83;64.06
24390;BME280;12510;56.468;-3.004;2023-01-13T22:22:25;99178.13;;;15.82;63.38
24390;BME280;12510;56.468;-3.004;2023-01-13T22:24:52;99180.56;;;15.76;63.85
24390;BME280;12510;56.468;-3.004;2023-01-13T22:27:23;99167.50;;;15.75;64.09
24390;BME280;12510;56.468;-3.004;2023-01-13T22:29:51;99170.34;;;15.73;63.67
24390;BME280;12510;56.468;-3.004;2023-01-13T22:32:18;99161.81;;;15.65;64.57
24390;BME280;12510;56.468;-3.004;2023-01-13T22:34:45;99161.19;;;15.69;64.77
24390;BME280;12510;56.468;-3.004;2023-01-13T22:37:12;99152.66;;;16.33;63.27
24390;BME280;12510;56.468;-3.004;2023-01-13T22:39:38;99135.50;;;16.35;62.14
24390;BME280;12510;56.468;-3.004;2023-01-13T22:42:05;99127.06;;;15.80;63.73
24390;BME280;12510;56.468;-3.004;2023-01-13T22:44:32;99119.13;;;15.73;64.59
24390;BME280;12510;56.468;-3.004;2023-01-13T22:46:59;99113.63;;;15.61;64.96
24390;BME280;12510;56.468;-3.004;2023-01-13T22:49:25;99115.66;;;15.66;65.36
24390;BME280;12510;56.468;-3.004;2023-01-13T22:51:51;99117.50;;;15.72;64.76
24390;BME280;12510;56.468;-3.004;2023-01-13T22:54:18;99120.78;;;15.67;64.78
24390;BME280;12510;56.468;-3.004;2023-01-13T22:56:45;99118.50;;;15.64;64.59
24390;BME280;12510;56.468;-3.004;2023-01-13T22:59:12;99122.41;;;15.55;64.66
24390;BME280;12510;56.468;-3.004;2023-01-13T23:01:39;99126.09;;;15.14;65.16
24390;BME280;12510;56.468;-3.004;2023-01-13T23:04:10;99134.84;;;14.94;66.62
24390;BME280;12510;56.468;-3.004;2023-01-13T23:06:38;99135.84;;;15.00;66.07
24390;BME280;12510;56.468;-3.004;2023-01-13T23:09:05;99151.28;;;14.69;66.70
24390;BME280;12510;56.468;-3.004;2023-01-13T23:11:32;99155.25;;;14.45;67.64
24390;BME280;12510;56.468;-3.004;2023-01-13T23:14:04;99138.72;;;14.36;69.32
24390;BME280;12510;56.468;-3.004;2023-01-13T23:16:34;99126.41;;;14.70;68.10
24390;BME280;12510;56.468;-3.004;2023-01-13T23:19:01;99117.28;;;14.86;66.72
24390;BME280;12510;56.468;-3.004;2023-01-13T23:21:30;99101.81;;;14.90;67.35
24390;BME280;12510;56.468;-3.004;2023-01-13T23:23:57;99107.91;;;14.84;67.55
24390;BME280;12510;56.468;-3.004;2023-01-13T23:26:23;99092.81;;;14.78;68.10
24390;BME280;12510;56.468;-3.004;2023-01-13T23:28:50;99075.88;;;14.85;67.76
24390;BME280;12510;56.468;-3.004;2023-01-13T23:31:19;99076.72;;;14.79;68.26
24390;BME280;12510;56.468;-3.004;2023-01-13T23:33:47;99063.88;;;14.96;67.72
24390;BME280;12510;56.468;-3.004;2023-01-13T23:36:19;99056.53;;;14.78;67.79
24390;BME280;12510;56.468;-3.004;2023-01-13T23:38:46;99052.44;;;14.69;68.05
24390;BME280;12510;56.468;-3.004;2023-01-13T23:41:15;99028.19;;;14.65;68.34
24390;BME280;12510;56.468;-3.004;2023-01-13T23:43:42;99017.16;;;14.62;68.62
24390;BME280;12510;56.468;-3.004;2023-01-13T23:46:11;99013.13;;;14.72;68.03
24390;BME280;12510;56.468;-3.004;2023-01-13T23:48:38;99015.13;;;14.64;67.95
24390;BME280;12510;56.468;-3.004;2023-01-13T23:51:07;99026.34;;;14.66;67.75
24390;BME280;12510;56.468;-3.004;2023-01-13T23:53:36;99026.31;;;14.59;68.31
24390;BME280;12510;56.468;-3.004;2023-01-13T23:56:04;99022.47;;;14.62;69.25
24390;BME280;12510;56.468;-3.004;2023-01-13T23:58:32;99013.50;;;14.83;68.31
